| time (UTC) | temp F | wind direction | speed knots | gust knots | rain 1hr in | rain 24hr in | rain mn in | humidity % | barometer mb |
| 20260503050017 | 45 | 245 | 0.0 | 1.7 | 0.00 | 0.00 | 0.00 | 67 | 1010.8 |
| 20260503044525 | 45 | 249 | 0.9 | 3.5 | 0.00 | 0.00 | 0.00 | 68 | 1010.8 |
| 20260503043016 | 45 | 126 | 0.0 | 0.9 | 0.00 | 0.00 | 0.00 | 68 | 1010.9 |
| 20260503041515 | 45 | 126 | 0.9 | 1.7 | 0.00 | 0.00 | 0.00 | 68 | 1011.0 |
| 20260503040015 | 45 | 126 | 0.0 | 1.7 | 0.00 | 0.00 | 0.00 | 68 | 1011.2 |
| 20260503034511 | 46 | 126 | 0.0 | 1.7 | 0.00 | 0.00 | 0.00 | 65 | 1011.5 |
| 20260503033010 | 47 | 126 | 0.0 | 0.0 | 0.00 | 0.00 | 0.00 | 64 | 1011.7 |
| 20260503031508 | 48 | 126 | 0.0 | 1.7 | 0.00 | 0.00 | 0.00 | 64 | 1011.9 |
| 20260503030006 | 49 | 126 | 0.0 | 0.9 | 0.00 | 0.00 | 0.00 | 60 | 1012.0 |
| 20260503024504 | 50 | 126 | 0.0 | 0.0 | 0.00 | 0.00 | 0.00 | 55 | 1012.3 |
| 20260503023011 | 50 | 126 | 0.0 | 0.9 | 0.00 | 0.00 | 0.00 | 56 | 1012.4 |
| 20260503021503 | 51 | 126 | 0.0 | 2.6 | 0.00 | 0.00 | 0.00 | 55 | 1012.5 |
| 20260503020002 | 51 | 124 | 0.0 | 1.7 | 0.00 | 0.00 | 0.00 | 53 | 1012.5 |
| 20260503014502 | 52 | 124 | 0.0 | 0.9 | 0.00 | 0.00 | 0.00 | 49 | 1012.5 |
| 20260503013001 | 53 | 124 | 0.0 | 1.7 | 0.00 | 0.00 | 0.00 | 49 | 1012.4 |
| 20260503011608 | 53 | 123 | 0.0 | 2.6 | 0.00 | 0.00 | 0.00 | 46 | 1012.5 |
| 20260503010100 | 54 | 221 | 0.0 | 3.5 | 0.00 | 0.00 | 0.00 | 44 | 1012.8 |
| 20260503004557 | 55 | 220 | 1.7 | 3.5 | 0.00 | 0.00 | 0.00 | 43 | 1012.8 |
| 20260503003104 | 55 | 209 | 2.6 | 6.1 | 0.00 | 0.00 | 0.00 | 41 | 1013.0 |
| 20260503001554 | 56 | 225 | 1.7 | 9.6 | 0.00 | 0.00 | 0.00 | 40 | 1013.1 |
| 20260503000108 | 56 | 324 | 2.6 | 7.8 | 0.00 | 0.00 | 0.00 | 39 | 1013.2 |
| 20260502234551 | 57 | 17 | 0.9 | 7.0 | 0.00 | 0.00 | 0.00 | 38 | 1013.3 |
| 20260502233051 | 57 | 332 | 1.7 | 10.4 | 0.00 | 0.00 | 0.00 | 37 | 1013.5 |
| 20260502231550 | 57 | 13 | 1.7 | 10.4 | 0.00 | 0.00 | 0.00 | 37 | 1013.4 |
| 20260502230051 | 58 | 301 | 2.6 | 13.0 | 0.00 | 0.00 | 0.00 | 33 | 1013.5 |
| 20260502224548 | 59 | 315 | 2.6 | 13.9 | 0.00 | 0.00 | 0.00 | 32 | 1013.5 |
| 20260502223047 | 59 | 211 | 2.6 | 10.4 | 0.00 | 0.00 | 0.00 | 31 | 1013.7 |
| 20260502221546 | 58 | 214 | 2.6 | 11.3 | 0.00 | 0.00 | 0.00 | 35 | 1013.7 |
| 20260502220046 | 58 | 340 | 2.6 | 10.4 | 0.00 | 0.00 | 0.00 | 32 | 1013.9 |
| 20260502214542 | 58 | 257 | 1.7 | 11.3 | 0.00 | 0.00 | 0.00 | 35 | 1014.0 |
| 20260502213041 | 59 | 213 | 5.2 | 13.9 | 0.00 | 0.00 | 0.00 | 31 | 1014.2 |
| 20260502211547 | 58 | 28 | 3.5 | 8.7 | 0.00 | 0.00 | 0.00 | 33 | 1014.3 |
| 20260502210037 | 58 | 11 | 4.3 | 13.9 | 0.00 | 0.00 | 0.00 | 33 | 1014.3 |
| 20260502204536 | 58 | 238 | 3.5 | 11.3 | 0.00 | 0.00 | 0.00 | 34 | 1014.5 |
| 20260502203034 | 58 | 354 | 0.9 | 12.2 | 0.00 | 0.00 | 0.00 | 33 | 1014.7 |
| 20260502201534 | 58 | 338 | 3.5 | 8.7 | 0.00 | 0.00 | 0.00 | 31 | 1015.2 |
| 20260502200038 | 58 | 251 | 6.1 | 16.5 | 0.00 | 0.00 | 0.00 | 36 | 1015.3 |
| 20260502194528 | 57 | 339 | 3.5 | 13.0 | 0.00 | 0.00 | 0.00 | 31 | 1015.7 |
| 20260502193024 | 56 | 1 | 7.8 | 17.4 | 0.00 | 0.00 | 0.00 | 34 | 1015.9 |
| 20260502191523 | 56 | 44 | 3.5 | 7.8 | 0.00 | 0.00 | 0.00 | 34 | 1016.0 |
| 20260502190021 | 56 | 326 | 3.5 | 11.3 | 0.00 | 0.00 | 0.00 | 35 | 1016.3 |
| 20260502184527 | 56 | 340 | 1.7 | 7.0 | 0.00 | 0.00 | 0.00 | 35 | 1016.3 |
| 20260502183015 | 55 | 324 | 5.2 | 10.4 | 0.00 | 0.00 | 0.00 | 36 | 1016.6 |
| 20260502181512 | 55 | 274 | 4.3 | 12.2 | 0.00 | 0.00 | 0.00 | 37 | 1016.9 |
| 20260502163103 | 52 | 223 | 3.5 | 13.9 | 0.00 | 0.00 | 0.00 | 38 | 1018.3 |
| 20260502161559 | 52 | 321 | 5.2 | 13.0 | 0.00 | 0.00 | 0.00 | 36 | 1018.4 |
| 20260502151549 | 50 | 206 | 1.7 | 7.8 | 0.00 | 0.00 | 0.00 | 45 | 1019.0 |
| 20260502123002 | 32 | 301 | 0.0 | 0.9 | 0.00 | 0.00 | 0.00 | 92 | 1020.2 |
| 20260502121559 | 30 | 337 | 0.0 | 0.9 | 0.00 | 0.00 | 0.00 | 92 | 1020.5 |
| 20260502114558 | 27 | 9 | 0.0 | 0.0 | 0.00 | 0.00 | 0.00 | 92 | 1020.3 |
| 20260502113056 | 25 | 57 | 0.0 | 0.9 | 0.00 | 0.00 | 0.00 | 91 | 1020.2 |
| 20260502111556 | 24 | 33 | 0.0 | 0.0 | 0.00 | 0.00 | 0.00 | 91 | 1020.1 |
| 20260502110055 | 24 | 33 | 0.0 | 0.0 | 0.00 | 0.00 | 0.00 | 91 | 1020.2 |
| 20260502104554 | 24 | 33 | 0.0 | 0.0 | 0.00 | 0.00 | 0.00 | 90 | 1020.2 |
| 20260502103051 | 25 | 33 | 0.0 | 0.0 | 0.00 | 0.00 | 0.00 | 90 | 1020.3 |
| 20260502101550 | 25 | 33 | 0.0 | 0.0 | 0.00 | 0.00 | 0.00 | 90 | 1020.4 |
| 20260502071533 | 27 | 33 | 0.0 | 0.0 | 0.00 | 0.00 | 0.00 | 86 | 1020.6 |
| 20260502070034 | 28 | 33 | 0.0 | 0.0 | 0.00 | 0.00 | 0.00 | 85 | 1020.6 |
| 20260502064532 | 28 | 33 | 0.0 | 0.9 | 0.00 | 0.00 | 0.00 | 85 | 1020.7 |
| 20260502063026 | 29 | 33 | 0.0 | 0.0 | 0.00 | 0.00 | 0.00 | 84 | 1020.8 |
| 20260502061524 | 29 | 33 | 0.0 | 0.0 | 0.00 | 0.00 | 0.00 | 83 | 1020.8 |
| 20260502060022 | 30 | 33 | 0.0 | 0.0 | 0.00 | 0.00 | 0.00 | 83 | 1020.7 |
| 20260502054521 | 30 | 33 | 0.0 | 0.0 | 0.00 | 0.00 | 0.00 | 82 | 1020.7 |
| 20260502053019 | 30 | 33 | 0.0 | 0.0 | 0.00 | 0.00 | 0.00 | 81 | 1020.8 |
| 20260502051517 | 30 | 33 | 0.0 | 0.0 | 0.00 | 0.00 | 0.00 | 81 | 1020.9 |